createdAt,value
2022-11-16T00:04:52.196Z,1000.79
2022-11-16T00:09:52.305Z,1000.84
2022-11-16T00:14:51.650Z,1000.82
2022-11-16T00:19:52.015Z,1000.92
2022-11-16T00:24:49.125Z,1000.86
2022-11-16T00:29:49.515Z,1000.89
2022-11-16T00:34:46.652Z,1000.95
2022-11-16T00:39:46.804Z,1001.06
2022-11-16T00:44:44.890Z,1001.05
2022-11-16T00:49:44.203Z,1001.10
2022-11-16T00:54:43.481Z,1001.08
2022-11-16T00:59:42.765Z,1000.99
2022-11-16T01:04:42.152Z,1001.02
2022-11-16T01:09:41.324Z,1000.99
2022-11-16T01:14:40.426Z,1000.95
2022-11-16T01:19:39.753Z,1000.93
2022-11-16T01:24:40.050Z,1000.96
2022-11-16T01:29:38.384Z,1000.94
2022-11-16T01:34:38.686Z,1000.97
2022-11-16T01:39:36.997Z,1001.01
2022-11-16T01:44:37.319Z,1000.99
2022-11-16T01:49:35.647Z,1001.01
2022-11-16T01:54:34.958Z,1001.12
2022-11-16T01:59:34.284Z,1001.32
2022-11-16T02:04:33.605Z,1001.40
2022-11-16T02:09:33.956Z,1001.49
2022-11-16T02:14:33.269Z,1001.68
2022-11-16T02:19:32.621Z,1001.87
2022-11-16T02:24:30.904Z,1002.01
2022-11-16T02:29:30.215Z,1002.00
2022-11-16T02:34:28.538Z,1001.96
2022-11-16T02:39:28.842Z,1002.04
2022-11-16T02:44:28.121Z,1002.03
2022-11-16T02:49:27.420Z,1002.00
2022-11-16T02:54:26.737Z,1001.92
2022-11-16T02:59:25.841Z,1001.92
2022-11-16T03:04:26.124Z,1001.94
2022-11-16T03:09:25.556Z,1001.92
2022-11-16T03:14:24.648Z,1001.86
2022-11-16T03:19:22.983Z,1001.89
2022-11-16T03:24:22.273Z,1001.94
2022-11-16T03:29:21.538Z,1002.01
2022-11-16T03:34:20.828Z,1002.05
2022-11-16T03:39:20.115Z,1002.08
2022-11-16T03:44:19.420Z,1002.13
2022-11-16T03:49:20.740Z,1002.14
2022-11-16T03:54:18.042Z,1002.13
2022-11-16T03:59:18.421Z,1002.06
2022-11-16T04:04:16.513Z,1002.10
2022-11-16T04:09:15.786Z,1002.13
2022-11-16T04:14:16.072Z,1002.04
2022-11-16T04:19:14.556Z,1002.22
2022-11-16T04:24:13.748Z,1002.05
2022-11-16T04:29:12.837Z,1002.02
2022-11-16T04:34:12.134Z,1002.04
2022-11-16T04:39:10.447Z,1001.95
2022-11-16T04:44:11.765Z,1001.93
2022-11-16T04:49:10.061Z,1001.81
2022-11-16T04:54:10.371Z,1001.76
2022-11-16T04:59:08.695Z,1001.92
2022-11-16T05:04:09.960Z,1001.81
2022-11-16T05:09:08.204Z,1001.75
2022-11-16T05:14:06.493Z,1001.70
2022-11-16T05:19:05.805Z,1001.67
2022-11-16T05:24:07.095Z,1001.64
2022-11-16T05:29:04.520Z,1001.66
2022-11-16T05:34:04.607Z,1001.56
2022-11-16T05:39:02.892Z,1001.42
2022-11-16T05:44:02.171Z,1001.49
2022-11-16T05:49:03.483Z,1001.51
2022-11-16T05:54:00.837Z,1001.45
2022-11-16T05:59:00.147Z,1001.54
2022-11-16T06:03:59.446Z,1001.53
2022-11-16T06:08:58.731Z,1001.61
2022-11-16T06:13:58.014Z,1001.76
2022-11-16T06:18:57.299Z,1001.73
2022-11-16T06:23:56.609Z,1001.83
2022-11-16T06:28:55.891Z,1001.80
2022-11-16T06:33:56.195Z,1001.79
2022-11-16T06:38:56.481Z,1001.73
2022-11-16T06:43:54.822Z,1001.75
2022-11-16T06:48:53.122Z,1001.77
2022-11-16T06:53:53.471Z,1001.78
2022-11-16T06:58:53.859Z,1001.77
2022-11-16T07:03:50.946Z,1001.69
2022-11-16T07:08:50.253Z,1001.83
2022-11-16T07:13:49.531Z,1001.87
2022-11-16T07:18:48.780Z,1001.97
2022-11-16T07:23:50.094Z,1002.02
2022-11-16T07:28:48.549Z,1001.88
2022-11-16T07:33:47.585Z,1001.97
2022-11-16T07:38:45.893Z,1002.04
2022-11-16T07:43:49.880Z,1002.16
2022-11-16T07:48:44.361Z,1002.06
2022-11-16T07:53:43.629Z,1002.11
2022-11-16T07:58:43.916Z,1002.24
2022-11-16T08:03:42.190Z,1002.20
2022-11-16T08:08:41.466Z,1002.34
2022-11-16T08:13:39.754Z,1002.25
2022-11-16T08:18:41.045Z,1002.19
2022-11-16T08:23:39.313Z,1002.17
2022-11-16T08:28:39.627Z,1002.20
2022-11-16T08:33:39.726Z,1002.27
2022-11-16T08:38:37.002Z,1002.29
2022-11-16T08:43:35.344Z,1002.29
2022-11-16T08:48:36.869Z,1002.36
2022-11-16T08:53:36.668Z,1002.41
2022-11-16T08:58:35.266Z,1002.43
2022-11-16T09:03:33.207Z,1002.50
2022-11-16T09:08:33.779Z,1002.43
2022-11-16T09:13:32.702Z,1002.55
2022-11-16T09:18:32.435Z,1002.58
2022-11-16T09:23:32.289Z,1002.50
2022-11-16T09:28:30.670Z,1002.52
2022-11-16T09:33:28.778Z,1002.53
2022-11-16T09:38:40.641Z,1002.55
2022-11-16T09:43:27.244Z,1002.55
2022-11-16T09:48:26.479Z,1002.53
2022-11-16T09:53:25.652Z,1002.50
2022-11-16T09:58:24.836Z,1002.43
2022-11-16T10:03:24.005Z,1002.47
2022-11-16T10:08:23.243Z,1002.46
2022-11-16T10:13:24.405Z,1002.41
2022-11-16T10:18:21.559Z,1002.37
2022-11-16T10:23:20.729Z,1002.33
2022-11-16T10:28:21.042Z,1002.17
2022-11-16T10:33:20.322Z,1002.15
2022-11-16T10:38:18.659Z,1002.12
2022-11-16T10:43:17.855Z,1002.17
2022-11-16T10:48:18.101Z,1001.95
2022-11-16T10:53:16.313Z,1001.91
2022-11-16T10:58:15.399Z,1001.84
2022-11-16T11:03:15.781Z,1001.79
2022-11-16T11:08:13.944Z,1001.78
2022-11-16T11:13:13.032Z,1001.69
2022-11-16T11:18:11.407Z,1001.72
2022-11-16T11:23:11.512Z,1001.60
2022-11-16T11:28:10.791Z,1001.65
2022-11-16T11:33:11.181Z,1001.69
2022-11-16T11:38:09.320Z,1001.66
2022-11-16T11:43:09.446Z,1001.63
2022-11-16T11:48:07.585Z,1001.51
2022-11-16T11:53:06.737Z,1001.50
2022-11-16T11:58:06.062Z,1001.57
2022-11-16T12:03:05.412Z,1001.51
2022-11-16T12:08:06.583Z,1001.51
2022-11-16T12:13:03.659Z,1001.54
2022-11-16T12:18:03.995Z,1001.57
2022-11-16T12:23:04.365Z,1001.62
2022-11-16T12:28:02.420Z,1001.51
2022-11-16T12:33:00.731Z,1001.55
2022-11-16T12:38:00.017Z,1001.46
2022-11-16T12:43:03.495Z,1001.30
2022-11-16T12:47:59.580Z,1001.23
2022-11-16T12:52:58.020Z,1001.18
2022-11-16T12:57:57.163Z,1001.14
2022-11-16T13:02:57.451Z,1001.13
2022-11-16T13:07:55.796Z,1001.14
2022-11-16T13:13:09.292Z,1001.14
2022-11-16T13:17:54.061Z,1001.09
2022-11-16T13:22:54.412Z,1001.07
2022-11-16T13:27:52.543Z,1001.08
2022-11-16T13:32:50.842Z,1001.14
2022-11-16T13:37:51.235Z,1001.15
2022-11-16T13:42:51.343Z,1001.10
2022-11-16T13:47:49.673Z,1001.02
2022-11-16T13:53:46.341Z,1001.00
2022-11-16T13:57:48.053Z,1000.89
2022-11-16T14:02:47.225Z,1000.78
2022-11-16T14:07:47.496Z,1000.71
2022-11-16T14:12:45.644Z,1000.69
2022-11-16T14:17:44.990Z,1000.70
2022-11-16T14:22:44.194Z,1000.57
2022-11-16T14:27:44.336Z,1000.54
2022-11-16T14:32:42.854Z,1000.55
2022-11-16T14:37:42.033Z,1000.67
2022-11-16T14:43:01.458Z,1000.82
2022-11-16T14:47:40.455Z,1000.80
2022-11-16T14:52:39.752Z,1000.79
2022-11-16T14:57:38.871Z,1000.59
2022-11-16T15:02:38.073Z,1000.55
2022-11-16T15:07:37.308Z,1000.53
2022-11-16T15:12:36.461Z,1000.61
2022-11-16T15:17:36.661Z,1000.66
2022-11-16T15:22:35.022Z,1000.52
2022-11-16T15:27:34.141Z,1000.49
2022-11-16T15:32:32.465Z,1000.57
2022-11-16T15:37:31.845Z,1000.54
2022-11-16T15:42:32.007Z,1000.51
2022-11-16T15:47:31.333Z,1000.52
2022-11-16T15:52:30.447Z,1000.43
2022-11-16T15:57:29.761Z,1000.44
2022-11-16T16:02:29.108Z,1000.28
2022-11-16T16:07:28.511Z,1000.22
2022-11-16T16:12:27.747Z,1000.21
2022-11-16T16:17:26.949Z,1000.13
2022-11-16T16:22:26.121Z,1000.04
2022-11-16T16:27:26.257Z,999.92
2022-11-16T16:32:25.554Z,999.96
2022-11-16T16:37:24.267Z,999.95
2022-11-16T16:42:23.554Z,999.81
2022-11-16T16:47:22.649Z,999.80
2022-11-16T16:52:21.074Z,999.87
2022-11-16T16:57:21.071Z,999.98
2022-11-16T17:02:20.633Z,999.94
2022-11-16T17:07:18.708Z,1000.01
2022-11-16T17:12:18.882Z,1000.03
2022-11-16T17:17:19.131Z,1000.05
2022-11-16T17:22:19.386Z,999.93
2022-11-16T17:27:16.851Z,999.94
2022-11-16T17:32:15.834Z,999.87
2022-11-16T17:37:15.300Z,999.91
2022-11-16T17:42:14.652Z,999.87
2022-11-16T17:47:14.757Z,999.85
2022-11-16T17:52:14.074Z,999.81
2022-11-16T17:57:13.201Z,999.83
2022-11-16T18:02:12.385Z,999.94
2022-11-16T18:07:10.833Z,999.91
2022-11-16T18:12:13.774Z,999.85
2022-11-16T18:17:09.186Z,999.69
2022-11-16T18:22:08.510Z,999.68
2022-11-16T18:27:12.652Z,999.60
2022-11-16T18:32:06.804Z,999.59
2022-11-16T18:37:06.432Z,999.62
2022-11-16T18:42:06.744Z,999.53
2022-11-16T18:47:06.001Z,999.34
2022-11-16T18:52:06.272Z,999.19
2022-11-16T18:57:03.442Z,999.05
2022-11-16T19:02:02.887Z,998.96
2022-11-16T19:07:02.190Z,998.79
2022-11-16T19:12:01.373Z,998.75
2022-11-16T19:17:00.682Z,998.55
2022-11-16T19:21:59.992Z,998.50
2022-11-16T19:27:00.339Z,998.40
2022-11-16T19:31:59.371Z,998.45
2022-11-16T19:36:58.301Z,998.35
2022-11-16T19:41:56.911Z,998.37
2022-11-16T19:46:56.253Z,998.29
2022-11-16T19:51:55.387Z,998.32
2022-11-16T19:56:55.360Z,998.27
2022-11-16T20:02:06.038Z,998.29
2022-11-16T20:06:54.240Z,998.45
2022-11-16T20:11:55.327Z,998.77
2022-11-16T20:16:52.201Z,998.67
2022-11-16T20:21:51.455Z,998.81
2022-11-16T20:26:49.951Z,998.52
2022-11-16T20:31:49.085Z,998.40
2022-11-16T20:36:48.408Z,998.14
2022-11-16T20:41:48.734Z,998.06
2022-11-16T20:46:47.131Z,997.93
2022-11-16T20:51:48.153Z,998.00
2022-11-16T20:56:45.513Z,998.00
2022-11-16T21:01:44.433Z,998.07
2022-11-16T21:06:44.638Z,997.85
2022-11-16T21:11:42.804Z,997.86
2022-11-16T21:16:42.085Z,997.78
2022-11-16T21:21:41.381Z,997.76
2022-11-16T21:26:40.556Z,997.73
2022-11-16T21:31:40.722Z,997.75
2022-11-16T21:36:38.910Z,997.65
2022-11-16T21:41:38.076Z,997.60
2022-11-16T21:46:37.249Z,997.64
2022-11-16T21:51:36.424Z,997.57
2022-11-16T21:56:35.597Z,997.54
2022-11-16T22:01:34.797Z,997.50
2022-11-16T22:06:34.003Z,997.48
2022-11-16T22:11:33.185Z,997.34
2022-11-16T22:16:33.379Z,997.41
2022-11-16T22:21:32.547Z,997.41
2022-11-16T22:26:30.716Z,997.46
2022-11-16T22:31:29.915Z,997.40
2022-11-16T22:36:30.115Z,997.41
2022-11-16T22:41:28.303Z,997.19
2022-11-16T22:46:28.489Z,997.08
2022-11-16T22:51:26.666Z,997.04
2022-11-16T22:56:27.868Z,996.94
2022-11-16T23:01:25.010Z,996.90
2022-11-16T23:06:24.184Z,996.97
2022-11-16T23:11:23.346Z,996.83
2022-11-16T23:16:22.523Z,996.72
2022-11-16T23:21:21.689Z,996.81
2022-11-16T23:26:20.870Z,996.80
2022-11-16T23:31:20.029Z,996.77
2022-11-16T23:36:19.197Z,996.69
2022-11-16T23:41:19.359Z,996.69
2022-11-16T23:46:17.518Z,996.68
2022-11-16T23:51:17.673Z,996.70
2022-11-16T23:56:15.841Z,996.55
